Time;durP1;ratioP1;P1;durP2;ratioP2;P2;SDS_P1;SDS_P2;PMS_P1;PMS_P2;Temp;Humidity;BMP_temperature;BMP_pressure;BME280_temperature;BME280_humidity;BME280_pressure;Samples;Min_cycle;Max_cycle;Signal;HPM_P1;HPM_P2
2021/07/03 00:00:28;;;;;;;26.77;19.15;;;16.30;99.90;;;;;;5072567;28;20017;-71
2021/07/03 00:02:53;;;;;;;28.98;19.10;;;16.30;99.90;;;;;;5071956;28;20036;-72
2021/07/03 00:05:19;;;;;;;29.27;19.00;;;16.30;99.90;;;;;;5070972;28;20032;-73
2021/07/03 00:07:44;;;;;;;35.05;20.10;;;16.30;99.90;;;;;;5083328;28;20496;-71
2021/07/03 00:10:11;;;;;;;27.27;18.25;;;16.20;99.90;;;;;;5091713;28;20434;-72
2021/07/03 00:12:37;;;;;;;32.00;20.35;;;16.20;99.90;;;;;;5087429;28;20043;-72
2021/07/03 00:15:05;;;;;;;36.63;20.02;;;16.20;99.90;;;;;;5072150;28;20020;-71
2021/07/03 00:17:31;;;;;;;29.85;19.65;;;16.20;99.90;;;;;;5089898;28;20024;-71
2021/07/03 00:19:56;;;;;;;32.45;19.77;;;16.20;99.90;;;;;;5092031;28;20124;-72
2021/07/03 00:22:22;;;;;;;31.92;18.95;;;16.20;99.90;;;;;;5075150;28;20032;-72
2021/07/03 00:24:47;;;;;;;29.85;18.80;;;16.10;99.90;;;;;;5078987;28;20138;-72
2021/07/03 00:27:13;;;;;;;25.42;18.00;;;16.10;99.90;;;;;;5077510;28;20111;-72
2021/07/03 00:29:39;;;;;;;28.13;20.15;;;16.20;99.90;;;;;;5071598;28;20077;-72
2021/07/03 00:32:05;;;;;;;28.58;18.75;;;16.10;99.90;;;;;;5070857;28;20076;-71
2021/07/03 00:34:30;;;;;;;31.85;20.73;;;16.10;99.90;;;;;;5071666;28;20047;-72
2021/07/03 00:36:56;;;;;;;31.63;19.73;;;16.00;99.90;;;;;;5071802;28;20025;-71
2021/07/03 00:39:21;;;;;;;30.98;19.63;;;16.00;99.90;;;;;;5070547;28;20020;-72
2021/07/03 00:41:47;;;;;;;29.42;20.65;;;16.00;99.90;;;;;;5078768;28;20047;-71
2021/07/03 00:44:23;;;;;;;28.05;20.10;;;16.00;99.90;;;;;;5077801;28;20460;-72
2021/07/03 00:46:49;;;;;;;31.23;20.80;;;16.00;99.90;;;;;;5070636;28;20059;-72
2021/07/03 00:49:15;;;;;;;29.27;20.33;;;16.00;99.90;;;;;;5071284;28;20033;-72
2021/07/03 00:51:41;;;;;;;31.88;20.67;;;15.90;99.90;;;;;;5071182;28;20346;-73
2021/07/03 00:54:09;;;;;;;29.92;20.50;;;15.90;99.90;;;;;;5081751;28;20105;-72
2021/07/03 00:56:34;;;;;;;33.13;20.25;;;15.90;99.90;;;;;;5090825;28;20085;-71
2021/07/03 00:59:00;;;;;;;37.15;22.38;;;15.90;99.90;;;;;;5091135;28;20016;-71
2021/07/03 01:01:25;;;;;;;31.98;21.88;;;15.80;99.90;;;;;;5089784;28;20032;-72
2021/07/03 01:03:51;;;;;;;34.13;22.10;;;15.90;99.90;;;;;;5070759;28;20036;-72
2021/07/03 01:06:17;;;;;;;33.97;22.63;;;15.90;99.90;;;;;;5070367;28;20020;-73
2021/07/03 01:08:43;;;;;;;35.60;23.17;;;15.80;99.90;;;;;;5069786;28;20021;-72
2021/07/03 01:11:08;;;;;;;38.13;23.38;;;15.90;99.90;;;;;;5070424;28;20066;-71
2021/07/03 01:13:34;;;;;;;40.17;23.55;;;15.90;99.90;;;;;;5070236;28;20024;-71
2021/07/03 01:16:00;;;;;;;42.03;23.92;;;15.90;99.90;;;;;;5077687;28;20066;-70
2021/07/03 01:18:25;;;;;;;36.25;24.80;;;15.80;99.90;;;;;;5076794;28;20431;-72
2021/07/03 01:20:53;;;;;;;44.42;26.55;;;15.90;99.90;;;;;;5070164;28;20028;-72
2021/07/03 01:23:20;;;;;;;44.58;24.38;;;15.90;99.90;;;;;;5070820;28;20036;-73
2021/07/03 01:25:45;;;;;;;49.67;25.92;;;15.80;99.90;;;;;;5070793;28;20017;-72
2021/07/03 01:28:11;;;;;;;41.60;27.27;;;15.90;99.90;;;;;;5070139;28;20032;-72
2021/07/03 01:30:37;;;;;;;44.63;26.77;;;15.90;99.90;;;;;;5070990;28;20107;-72
2021/07/03 01:33:03;;;;;;;47.63;28.30;;;15.80;99.90;;;;;;5070870;28;20703;-71
2021/07/03 01:35:31;;;;;;;38.80;26.55;;;15.80;99.90;;;;;;5070200;28;20028;-71
2021/07/03 01:37:57;;;;;;;42.72;26.85;;;15.80;99.90;;;;;;5070959;28;20028;-71
2021/07/03 01:40:24;;;;;;;40.40;26.83;;;15.80;99.90;;;;;;5070957;28;20033;-72
2021/07/03 01:42:49;;;;;;;46.30;26.85;;;15.80;99.90;;;;;;5070184;28;20025;-72
2021/07/03 01:45:15;;;;;;;39.22;26.42;;;15.80;99.90;;;;;;5070720;28;20017;-72
2021/07/03 01:47:45;;;;;;;46.30;29.25;;;15.80;99.90;;;;;;5070383;28;20436;-72
2021/07/03 01:50:12;;;;;;;50.47;28.95;;;15.80;99.90;;;;;;5069956;28;20108;-72
2021/07/03 01:52:38;;;;;;;45.45;28.85;;;15.80;99.90;;;;;;5070638;28;20041;-72
2021/07/03 01:55:08;;;;;;;47.08;29.00;;;15.70;99.90;;;;;;5070319;28;20385;-71
2021/07/03 01:57:34;;;;;;;46.70;29.33;;;15.70;99.90;;;;;;5069879;28;20477;-71
2021/07/03 02:00:01;;;;;;;52.60;31.67;;;15.70;99.90;;;;;;5070685;28;20085;-71
2021/07/03 02:02:27;;;;;;;54.60;33.78;;;15.80;99.90;;;;;;5070517;28;20086;-72
2021/07/03 02:04:52;;;;;;;49.95;33.13;;;15.70;99.90;;;;;;5069947;28;20396;-72
2021/07/03 02:07:18;;;;;;;58.17;34.22;;;15.70;99.90;;;;;;5081419;28;20103;-72
2021/07/03 02:09:43;;;;;;;64.28;36.67;;;15.70;99.90;;;;;;5094190;28;20024;-71
2021/07/03 02:12:09;;;;;;;57.33;34.78;;;15.80;99.90;;;;;;5093494;28;20027;-71
2021/07/03 02:14:35;;;;;;;62.47;37.25;;;15.80;99.90;;;;;;5079923;28;20504;-71
2021/07/03 02:17:00;;;;;;;61.15;36.35;;;15.80;99.90;;;;;;5087218;28;20028;-72
2021/07/03 02:19:26;;;;;;;61.80;37.28;;;15.80;99.90;;;;;;5073902;28;20074;-71
2021/07/03 02:21:51;;;;;;;59.42;36.25;;;15.80;99.90;;;;;;5073728;28;20033;-71
2021/07/03 02:24:17;;;;;;;65.75;37.38;;;15.90;99.90;;;;;;5079155;28;20192;-72
2021/07/03 02:26:43;;;;;;;63.35;36.63;;;15.90;99.90;;;;;;5094177;28;20039;-71
2021/07/03 02:29:09;;;;;;;62.38;36.55;;;15.90;99.90;;;;;;5093703;28;20043;-72
2021/07/03 02:31:34;;;;;;;57.13;34.58;;;16.00;99.90;;;;;;5093688;28;20043;-71
2021/07/03 02:34:00;;;;;;;56.55;35.03;;;16.00;99.90;;;;;;5093991;28;20476;-73
2021/07/03 02:36:26;;;;;;;60.58;35.78;;;16.00;99.90;;;;;;5094136;28;20028;-71
2021/07/03 02:38:51;;;;;;;61.95;37.42;;;16.00;99.90;;;;;;5093245;28;20398;-72
2021/07/03 02:41:17;;;;;;;66.43;38.33;;;16.00;99.90;;;;;;5093847;28;20542;-72
2021/07/03 02:43:43;;;;;;;58.33;35.20;;;16.10;99.90;;;;;;5093812;28;20534;-72
2021/07/03 02:46:08;;;;;;;61.70;36.70;;;16.10;99.90;;;;;;5091329;28;20077;-72
2021/07/03 02:48:34;;;;;;;59.15;36.88;;;16.10;99.90;;;;;;5093798;28;20388;-72
2021/07/03 02:50:59;;;;;;;59.13;36.42;;;16.10;99.90;;;;;;5076950;28;20024;-70
2021/07/03 02:53:25;;;;;;;63.53;37.97;;;16.10;99.90;;;;;;5072972;28;20021;-72
2021/07/03 02:55:51;;;;;;;57.33;35.22;;;16.10;99.90;;;;;;5073880;28;20380;-72
2021/07/03 02:58:17;;;;;;;66.75;36.60;;;16.00;99.90;;;;;;5077464;28;20130;-71
2021/07/03 03:00:42;;;;;;;59.03;34.78;;;16.10;99.90;;;;;;5081999;28;20032;-72
2021/07/03 03:03:08;;;;;;;60.42;35.70;;;16.10;99.90;;;;;;5074416;28;20025;-72
2021/07/03 03:05:33;;;;;;;63.05;36.70;;;16.10;99.90;;;;;;5073598;28;20028;-72
2021/07/03 03:07:59;;;;;;;60.90;36.28;;;16.10;99.90;;;;;;5072254;28;20074;-72
2021/07/03 03:10:25;;;;;;;64.95;37.92;;;16.10;99.90;;;;;;5073397;28;20096;-71
2021/07/03 03:12:50;;;;;;;57.13;35.95;;;16.10;99.90;;;;;;5073199;28;20424;-72
2021/07/03 03:15:19;;;;;;;59.63;36.97;;;16.10;99.90;;;;;;5089990;28;20012;-72
2021/07/03 03:17:45;;;;;;;59.33;36.60;;;16.10;99.90;;;;;;5072702;28;20106;-73
2021/07/03 03:20:12;;;;;;;58.85;37.40;;;16.10;99.90;;;;;;5072053;28;20448;-71
2021/07/03 03:22:39;;;;;;;55.78;37.17;;;16.10;99.90;;;;;;5072249;28;20040;-73
2021/07/03 03:25:06;;;;;;;65.82;38.15;;;16.00;99.90;;;;;;5072603;28;20035;-72
2021/07/03 03:27:32;;;;;;;63.75;36.78;;;16.00;99.90;;;;;;5071897;28;20342;-72
2021/07/03 03:29:58;;;;;;;59.58;36.38;;;16.00;99.90;;;;;;5072274;28;20527;-71
2021/07/03 03:32:23;;;;;;;60.17;38.42;;;16.00;99.90;;;;;;5072347;28;20025;-72
2021/07/03 03:34:49;;;;;;;65.10;37.17;;;16.00;99.90;;;;;;5071649;28;20036;-72
2021/07/03 03:37:15;;;;;;;58.45;36.17;;;15.90;99.90;;;;;;5072000;28;20526;-71
2021/07/03 03:39:40;;;;;;;59.92;36.65;;;15.90;99.90;;;;;;5072668;28;20078;-73
2021/07/03 03:42:06;;;;;;;62.08;37.95;;;15.90;99.90;;;;;;5084767;28;20115;-71
2021/07/03 03:44:32;;;;;;;65.13;39.05;;;15.90;99.90;;;;;;5092494;28;20020;-72
2021/07/03 03:46:57;;;;;;;63.97;36.65;;;15.90;99.90;;;;;;5092857;28;20056;-73
2021/07/03 03:49:23;;;;;;;66.65;38.85;;;15.90;99.90;;;;;;5091935;28;20031;-72
2021/07/03 03:51:49;;;;;;;58.83;36.67;;;16.00;99.90;;;;;;5092416;28;20422;-73
2021/07/03 03:54:16;;;;;;;61.45;36.00;;;16.00;99.90;;;;;;5091968;28;20047;-72
2021/07/03 03:56:42;;;;;;;63.67;38.85;;;16.00;99.90;;;;;;5091597;28;20082;-72
2021/07/03 03:59:10;;;;;;;59.05;37.90;;;16.10;99.90;;;;;;5092164;28;20027;-72
2021/07/03 04:01:36;;;;;;;62.22;37.97;;;16.10;99.90;;;;;;5092116;28;20373;-72
2021/07/03 04:04:03;;;;;;;64.50;38.60;;;16.10;99.90;;;;;;5091218;28;20031;-72
2021/07/03 04:06:29;;;;;;;59.97;36.63;;;16.20;99.90;;;;;;5091918;28;20039;-72
2021/07/03 04:08:55;;;;;;;59.10;35.22;;;16.20;99.90;;;;;;5092318;28;20476;-72
2021/07/03 04:11:21;;;;;;;62.35;38.30;;;16.20;99.90;;;;;;5091089;28;20024;-73
2021/07/03 04:13:46;;;;;;;63.78;38.97;;;16.20;99.90;;;;;;5091962;28;20020;-73
2021/07/03 04:16:12;;;;;;;61.42;37.42;;;16.20;99.90;;;;;;5081863;28;20020;-73
2021/07/03 04:18:37;;;;;;;60.03;37.65;;;16.20;99.90;;;;;;5070935;28;20021;-72
2021/07/03 04:21:03;;;;;;;64.32;38.10;;;16.30;99.90;;;;;;5071465;28;20078;-72
2021/07/03 04:23:29;;;;;;;62.10;37.90;;;16.30;99.90;;;;;;5071829;28;20067;-72
2021/07/03 04:25:55;;;;;;;60.85;36.88;;;16.30;99.90;;;;;;5070987;28;20063;-72
2021/07/03 04:28:20;;;;;;;62.65;38.97;;;16.30;99.90;;;;;;5071477;28;20082;-72
2021/07/03 04:30:46;;;;;;;61.42;37.13;;;16.30;99.90;;;;;;5070373;28;20021;-72
2021/07/03 04:33:11;;;;;;;63.20;37.63;;;16.30;99.90;;;;;;5071228;28;20028;-72
2021/07/03 04:35:37;;;;;;;62.53;35.45;;;16.30;99.90;;;;;;5071441;28;20124;-72
2021/07/03 04:38:04;;;;;;;61.55;39.35;;;16.40;99.90;;;;;;5077985;28;20069;-73
2021/07/03 04:40:29;;;;;;;62.55;38.35;;;16.40;99.90;;;;;;5091680;28;20115;-73
2021/07/03 04:42:55;;;;;;;59.65;37.42;;;16.50;99.90;;;;;;5091394;28;20127;-73
2021/07/03 04:45:20;;;;;;;60.78;38.13;;;16.50;99.90;;;;;;5090673;28;20372;-72
2021/07/03 04:47:46;;;;;;;56.90;37.17;;;16.50;99.90;;;;;;5091174;28;20035;-72
2021/07/03 04:50:12;;;;;;;58.72;36.88;;;16.60;99.90;;;;;;5081911;28;20013;-72
2021/07/03 04:52:38;;;;;;;60.38;38.67;;;16.60;99.90;;;;;;5070411;28;20504;-72
2021/07/03 04:55:06;;;;;;;58.53;36.75;;;16.60;99.90;;;;;;5071256;28;20033;-73
2021/07/03 04:57:32;;;;;;;61.60;38.85;;;16.70;99.90;;;;;;5071597;28;20032;-72
2021/07/03 04:59:58;;;;;;;56.85;37.03;;;16.70;99.90;;;;;;5070306;28;20027;-72
2021/07/03 05:02:23;;;;;;;58.65;37.15;;;16.70;99.90;;;;;;5071253;28;20103;-72
2021/07/03 05:04:49;;;;;;;61.67;38.97;;;16.80;99.90;;;;;;5070754;28;20028;-73
2021/07/03 05:07:15;;;;;;;60.65;38.55;;;16.90;99.90;;;;;;5070434;28;20031;-72
2021/07/03 05:09:40;;;;;;;63.85;39.60;;;17.00;99.90;;;;;;5070855;28;20023;-72
2021/07/03 05:12:06;;;;;;;61.35;39.13;;;17.20;99.90;;;;;;5070851;28;20353;-72
2021/07/03 05:14:32;;;;;;;60.20;39.30;;;17.30;99.90;;;;;;5070577;28;20125;-71
2021/07/03 05:16:57;;;;;;;59.72;38.35;;;17.40;99.90;;;;;;5085048;28;20028;-73
2021/07/03 05:19:23;;;;;;;60.35;39.25;;;17.40;99.90;;;;;;5070940;28;20353;-72
2021/07/03 05:21:49;;;;;;;56.90;37.00;;;17.40;99.90;;;;;;5071232;28;20040;-74
2021/07/03 05:24:15;;;;;;;54.13;35.92;;;17.40;99.90;;;;;;5070852;28;20061;-72
2021/07/03 05:26:40;;;;;;;63.45;38.17;;;17.50;99.90;;;;;;5070903;28;20441;-71
2021/07/03 05:29:06;;;;;;;54.90;36.55;;;17.50;99.90;;;;;;5073316;28;20031;-72
2021/07/03 05:31:32;;;;;;;61.70;38.45;;;17.50;99.90;;;;;;5088736;28;20036;-72
2021/07/03 05:33:58;;;;;;;57.15;38.42;;;17.50;99.90;;;;;;5081101;28;20035;-72
2021/07/03 05:36:24;;;;;;;60.17;39.20;;;17.50;99.90;;;;;;5089103;28;20020;-73
2021/07/03 05:38:52;;;;;;;61.22;39.60;;;17.50;99.90;;;;;;5089354;28;20539;-73
2021/07/03 05:41:19;;;;;;;62.67;38.40;;;17.50;99.90;;;;;;5085780;28;20043;-73
2021/07/03 05:43:45;;;;;;;63.03;40.38;;;17.40;99.90;;;;;;5091352;28;20051;-73
2021/07/03 05:46:12;;;;;;;59.97;36.70;;;17.50;99.90;;;;;;5087161;28;20017;-73
2021/07/03 05:48:41;;;;;;;58.72;37.15;;;17.50;99.90;;;;;;5090522;28;20032;-72
2021/07/03 05:51:08;;;;;;;63.97;39.88;;;17.60;99.90;;;;;;5090571;28;20099;-72
2021/07/03 05:53:34;;;;;;;63.15;38.70;;;17.70;99.90;;;;;;5093308;28;20154;-72
2021/07/03 05:56:00;;;;;;;61.60;38.40;;;17.70;99.90;;;;;;5086717;28;20106;-72
2021/07/03 05:58:25;;;;;;;61.25;39.75;;;17.80;99.90;;;;;;5089345;28;20043;-72
2021/07/03 06:00:51;;;;;;;58.78;39.25;;;17.80;99.90;;;;;;5093222;28;20028;-71
2021/07/03 06:03:17;;;;;;;66.18;38.38;;;17.90;99.90;;;;;;5089900;28;20184;-72
2021/07/03 06:05:42;;;;;;;55.08;36.85;;;17.90;99.90;;;;;;5093269;28;20035;-72
2021/07/03 06:08:08;;;;;;;49.70;34.88;;;17.90;99.90;;;;;;5091891;28;20036;-72
2021/07/03 06:10:34;;;;;;;64.68;40.70;;;18.00;99.90;;;;;;5079119;28;20048;-71
2021/07/03 06:13:00;;;;;;;58.20;37.47;;;18.00;99.90;;;;;;5076663;28;20017;-72
2021/07/03 06:15:26;;;;;;;58.40;37.55;;;18.10;99.90;;;;;;5092903;28;20039;-73
2021/07/03 06:17:51;;;;;;;62.65;38.97;;;18.40;99.90;;;;;;5092376;28;20021;-72
2021/07/03 06:20:17;;;;;;;62.03;38.28;;;18.20;99.90;;;;;;5081101;28;20039;-72
2021/07/03 06:22:43;;;;;;;63.53;37.10;;;18.30;99.90;;;;;;5083745;28;20032;-72
2021/07/03 06:25:10;;;;;;;62.60;36.70;;;18.40;99.90;;;;;;5084961;28;20045;-73
2021/07/03 06:27:39;;;;;;;56.80;36.22;;;18.40;99.90;;;;;;5082431;28;20107;-73
2021/07/03 06:30:09;;;;;;;50.13;35.63;;;18.50;99.90;;;;;;5075931;28;20047;-70
2021/07/03 06:32:34;;;;;;;55.00;36.42;;;18.50;99.90;;;;;;5075053;28;20388;-71
2021/07/03 06:35:00;;;;;;;53.40;35.42;;;18.60;99.90;;;;;;5076890;28;20035;-71
2021/07/03 06:37:26;;;;;;;53.00;36.13;;;18.60;99.90;;;;;;5072391;28;20024;-73
2021/07/03 06:39:52;;;;;;;51.40;36.15;;;18.70;99.90;;;;;;5073165;28;20451;-73
2021/07/03 06:42:19;;;;;;;49.47;34.63;;;18.80;99.90;;;;;;5072551;28;20041;-73
2021/07/03 06:44:45;;;;;;;47.90;34.13;;;18.80;99.90;;;;;;5071611;28;20099;-73
2021/07/03 06:47:12;;;;;;;52.17;34.55;;;18.90;99.90;;;;;;5072151;28;20135;-72
2021/07/03 06:49:38;;;;;;;54.15;35.30;;;19.00;99.90;;;;;;5074987;28;20017;-72
2021/07/03 06:52:04;;;;;;;47.28;33.45;;;19.00;99.90;;;;;;5071684;28;20023;-72
2021/07/03 06:54:29;;;;;;;58.10;34.45;;;19.10;99.90;;;;;;5071496;28;20024;-72
2021/07/03 06:56:58;;;;;;;48.97;33.58;;;19.10;99.90;;;;;;5072417;28;20024;-74
2021/07/03 06:59:27;;;;;;;57.75;35.75;;;19.20;99.90;;;;;;5071331;28;20529;-72
2021/07/03 07:01:53;;;;;;;50.63;34.47;;;19.20;99.90;;;;;;5072364;28;20032;-73
2021/07/03 07:04:20;;;;;;;51.28;34.10;;;19.20;99.90;;;;;;5076976;28;20034;-72
2021/07/03 07:06:56;;;;;;;45.88;31.83;;;19.30;99.90;;;;;;5071393;28;20020;-73
2021/07/03 07:09:25;;;;;;;49.05;33.30;;;19.30;99.90;;;;;;5071573;28;20032;-72
2021/07/03 07:11:52;;;;;;;50.25;32.72;;;19.40;99.90;;;;;;5072166;28;20045;-73
2021/07/03 07:14:18;;;;;;;52.70;35.13;;;19.40;99.90;;;;;;5077266;28;20058;-72
2021/07/03 07:16:44;;;;;;;45.00;31.98;;;19.50;99.90;;;;;;5075035;28;20354;-73
2021/07/03 07:19:10;;;;;;;49.90;33.80;;;19.60;99.90;;;;;;5080987;28;20152;-71
2021/07/03 07:21:36;;;;;;;41.47;28.73;;;19.60;99.90;;;;;;5075463;28;20017;-73
2021/07/03 07:24:03;;;;;;;51.20;30.77;;;19.70;99.90;;;;;;5071108;28;20028;-72
2021/07/03 07:26:29;;;;;;;39.08;28.35;;;19.70;99.90;;;;;;5073609;28;20020;-72
2021/07/03 07:28:55;;;;;;;37.97;28.02;;;19.80;99.90;;;;;;5074413;28;20016;-72
2021/07/03 07:31:21;;;;;;;39.15;28.02;;;20.30;99.90;;;;;;5071576;28;20017;-73
2021/07/03 07:33:46;;;;;;;38.50;29.05;;;19.90;99.90;;;;;;5071506;28;20016;-74
2021/07/03 07:36:12;;;;;;;40.58;26.90;;;20.00;99.90;;;;;;5075911;28;20027;-74
2021/07/03 07:38:39;;;;;;;37.85;26.92;;;20.00;99.90;;;;;;5082450;28;20051;-74
2021/07/03 07:41:05;;;;;;;39.08;26.92;;;20.10;99.90;;;;;;5074204;28;20042;-73
2021/07/03 07:43:33;;;;;;;38.63;27.10;;;20.20;99.90;;;;;;5073564;28;20036;-73
2021/07/03 07:46:00;;;;;;;43.25;28.58;;;20.30;99.90;;;;;;5073340;28;20040;-75
2021/07/03 07:48:28;;;;;;;34.65;23.65;;;20.30;99.90;;;;;;5071401;28;20051;-73
2021/07/03 07:50:56;;;;;;;33.05;24.75;;;20.50;99.90;;;;;;5078378;28;20127;-74
2021/07/03 07:53:22;;;;;;;31.42;24.00;;;20.50;99.90;;;;;;5079771;28;20430;-73
2021/07/03 07:55:48;;;;;;;35.67;24.35;;;20.60;99.90;;;;;;5071707;28;20035;-73
2021/07/03 07:58:14;;;;;;;35.15;24.20;;;20.70;99.90;;;;;;5088917;28;20054;-74
2021/07/03 08:00:39;;;;;;;32.97;24.42;;;20.70;99.90;;;;;;5091590;28;20024;-73
2021/07/03 08:03:05;;;;;;;31.50;22.65;;;20.90;99.90;;;;;;5087983;28;20143;-73
2021/07/03 08:05:31;;;;;;;31.02;22.88;;;20.90;99.90;;;;;;5089847;28;20032;-72
2021/07/03 08:07:56;;;;;;;29.27;22.80;;;21.00;99.90;;;;;;5088876;28;20479;-72
2021/07/03 08:10:27;;;;;;;32.30;24.42;;;21.10;99.90;;;;;;5089596;28;20104;-72
2021/07/03 08:12:53;;;;;;;32.50;24.33;;;21.20;99.90;;;;;;5090391;28;20050;-72
2021/07/03 08:15:18;;;;;;;30.20;21.15;;;21.30;99.90;;;;;;5088987;28;20476;-72
2021/07/03 08:17:44;;;;;;;28.20;21.17;;;21.30;99.90;;;;;;5083557;28;20056;-71
2021/07/03 08:20:17;;;;;;;33.40;22.90;;;21.50;99.90;;;;;;5084666;28;20515;-73
2021/07/03 08:22:43;;;;;;;30.33;20.40;;;21.70;99.90;;;;;;5089028;28;20039;-73
2021/07/03 08:25:10;;;;;;;29.23;18.98;;;21.90;99.90;;;;;;5091575;28;20559;-72
2021/07/03 08:27:36;;;;;;;35.45;19.33;;;22.10;99.90;;;;;;5072070;28;20028;-72
2021/07/03 08:30:03;;;;;;;25.13;19.08;;;22.40;99.90;;;;;;5070473;28;20090;-73
2021/07/03 08:32:28;;;;;;;23.70;18.13;;;22.60;99.90;;;;;;5074824;28;20062;-72
2021/07/03 08:34:54;;;;;;;26.13;18.63;;;22.80;99.90;;;;;;5081320;28;20068;-72
2021/07/03 08:37:19;;;;;;;28.63;18.88;;;22.90;99.90;;;;;;5070388;28;20025;-73
2021/07/03 08:39:45;;;;;;;30.80;19.55;;;23.10;99.90;;;;;;5079525;28;20089;-73
2021/07/03 08:42:10;;;;;;;26.25;16.88;;;23.30;99.90;;;;;;5078075;28;20417;-72
2021/07/03 08:44:36;;;;;;;25.17;18.38;;;23.40;99.90;;;;;;5090762;28;20479;-72
2021/07/03 08:47:02;;;;;;;22.85;17.00;;;23.60;99.90;;;;;;5091626;28;20087;-71
2021/07/03 08:49:28;;;;;;;26.05;17.90;;;23.60;99.90;;;;;;5091939;28;20042;-72
2021/07/03 08:51:54;;;;;;;35.22;17.95;;;23.80;99.90;;;;;;5090850;28;20020;-71
2021/07/03 08:54:20;;;;;;;26.08;17.40;;;24.00;99.90;;;;;;5083030;28;20460;-70
2021/07/03 08:56:47;;;;;;;17.70;14.30;;;24.20;99.90;;;;;;5077086;28;20111;-71
2021/07/03 08:59:22;;;;;;;22.63;15.10;;;24.30;99.90;;;;;;5083658;28;20036;-71
2021/07/03 09:01:53;;;;;;;25.35;15.82;;;24.50;99.90;;;;;;5082616;28;20078;-72
2021/07/03 09:04:19;;;;;;;17.30;14.85;;;24.60;99.90;;;;;;5084317;28;20082;-71
2021/07/03 09:06:45;;;;;;;19.50;15.15;;;24.60;99.90;;;;;;5080924;28;20016;-72
2021/07/03 09:09:10;;;;;;;18.70;15.90;;;24.60;99.90;;;;;;5077963;28;20032;-71
2021/07/03 09:11:36;;;;;;;21.58;16.40;;;24.50;99.90;;;;;;5085674;28;20028;-72
2021/07/03 09:14:07;;;;;;;20.10;15.88;;;24.50;99.90;;;;;;5074153;28;20638;-72
2021/07/03 09:16:35;;;;;;;19.80;16.25;;;24.30;99.90;;;;;;5090473;28;20449;-72
2021/07/03 09:19:02;;;;;;;17.20;15.38;;;24.20;99.90;;;;;;5074112;28;20033;-73
2021/07/03 09:21:29;;;;;;;21.45;17.08;;;24.20;99.90;;;;;;5076499;28;20300;-73
2021/07/03 09:23:55;;;;;;;24.85;15.18;;;24.10;99.90;;;;;;5077934;28;20052;-73
2021/07/03 09:26:20;;;;;;;20.27;16.85;;;24.00;99.90;;;;;;5075527;28;20056;-73
2021/07/03 09:28:47;;;;;;;19.05;13.98;;;23.90;99.90;;;;;;5077725;28;20029;-73
2021/07/03 09:31:15;;;;;;;20.20;14.50;;;23.60;99.90;;;;;;5076112;28;20025;-72
2021/07/03 09:33:52;;;;;;;23.88;13.98;;;23.60;99.90;;;;;;5076747;28;20032;-73
2021/07/03 09:36:25;;;;;;;25.95;13.45;;;23.60;99.90;;;;;;5087700;28;20036;-72
2021/07/03 09:38:53;;;;;;;13.80;11.88;;;23.70;99.90;;;;;;5077867;28;20414;-72
2021/07/03 09:41:21;;;;;;;24.70;14.27;;;23.60;99.90;;;;;;5075217;28;20017;-72
2021/07/03 09:43:52;;;;;;;17.50;13.15;;;23.80;99.90;;;;;;5076209;28;20064;-72
2021/07/03 09:46:25;;;;;;;15.95;13.68;;;23.90;99.90;;;;;;5076193;28;20432;-72
2021/07/03 09:48:53;;;;;;;16.30;13.18;;;24.00;99.90;;;;;;5075555;28;20071;-72
2021/07/03 09:51:30;;;;;;;19.55;13.60;;;24.20;99.90;;;;;;5075803;28;20024;-72
2021/07/03 09:53:58;;;;;;;17.73;12.98;;;24.30;99.90;;;;;;5075247;28;20029;-74
2021/07/03 09:56:24;;;;;;;16.88;13.95;;;24.30;99.90;;;;;;5075078;28;20483;-74
2021/07/03 09:58:50;;;;;;;17.42;12.93;;;24.30;99.90;;;;;;5076331;28;20033;-73
2021/07/03 10:01:16;;;;;;;18.52;13.23;;;24.30;99.90;;;;;;5074923;28;20389;-74
2021/07/03 10:03:42;;;;;;;21.20;14.73;;;24.30;99.90;;;;;;5074032;28;20450;-73
2021/07/03 10:06:12;;;;;;;21.52;14.38;;;24.30;99.90;;;;;;5075552;28;20020;-74
2021/07/03 10:08:40;;;;;;;21.57;15.13;;;24.20;99.90;;;;;;5057350;28;20074;-74
2021/07/03 10:11:09;;;;;;;18.83;14.90;;;24.10;99.90;;;;;;5073982;28;20320;-74
2021/07/03 10:13:40;;;;;;;16.83;14.48;;;24.00;99.90;;;;;;5094612;28;20142;-73
2021/07/03 10:16:08;;;;;;;19.73;14.50;;;23.80;99.90;;;;;;5089317;28;20494;-74
2021/07/03 10:18:36;;;;;;;20.27;15.40;;;23.70;99.90;;;;;;5079060;28;20028;-74
2021/07/03 10:21:10;;;;;;;21.05;16.27;;;23.80;99.90;;;;;;5073766;28;20016;-73
2021/07/03 10:23:41;;;;;;;18.25;15.52;;;23.60;99.90;;;;;;5075109;28;20040;-73
2021/07/03 10:26:08;;;;;;;20.80;14.57;;;23.50;99.90;;;;;;5073282;28;20016;-73
2021/07/03 10:28:35;;;;;;;27.70;16.95;;;23.50;99.90;;;;;;5073375;28;20024;-73
2021/07/03 10:31:14;;;;;;;22.25;16.88;;;23.40;99.90;;;;;;5072170;28;20021;-74
2021/07/03 10:33:50;;;;;;;21.08;15.57;;;23.30;99.90;;;;;;5078591;28;20036;-74
2021/07/03 10:36:42;;;;;;;22.83;15.75;;;23.30;99.90;;;;;;5078048;28;20024;-73
2021/07/03 10:39:08;;;;;;;22.15;17.08;;;23.10;99.90;;;;;;5079542;28;20059;-73
2021/07/03 10:41:36;;;;;;;21.45;16.52;;;23.20;99.90;;;;;;5078637;28;20135;-74
2021/07/03 10:44:10;;;;;;;18.13;14.88;;;23.20;99.90;;;;;;5090378;28;20395;-73
2021/07/03 10:46:41;;;;;;;19.75;15.32;;;23.30;99.90;;;;;;5092623;28;20044;-74
2021/07/03 10:49:08;;;;;;;17.15;14.15;;;23.50;99.90;;;;;;5090061;28;20056;-73
2021/07/03 10:51:35;;;;;;;19.67;15.02;;;23.70;99.90;;;;;;5078123;28;20040;-73
2021/07/03 10:54:24;;;;;;;17.98;14.02;;;24.00;99.90;;;;;;5081712;28;20044;-72
2021/07/03 10:57:07;;;;;;;16.00;14.23;;;24.30;99.90;;;;;;5085270;28;20029;-73
2021/07/03 10:59:36;;;;;;;19.17;14.20;;;24.50;99.90;;;;;;5082204;28;20052;-72
2021/07/03 11:02:12;;;;;;;17.95;14.95;;;24.60;99.90;;;;;;5090038;28;20032;-74
2021/07/03 11:04:49;;;;;;;16.42;13.82;;;24.60;99.90;;;;;;5085848;28;20023;-74
2021/07/03 11:07:17;;;;;;;16.60;12.85;;;24.60;99.90;;;;;;5090410;28;20539;-72
2021/07/03 11:09:43;;;;;;;18.80;13.20;;;24.70;99.90;;;;;;5089568;28;20448;-72
2021/07/03 11:12:14;;;;;;;13.68;12.30;;;24.80;99.90;;;;;;5086997;28;20035;-72
2021/07/03 11:15:00;;;;;;;14.85;12.38;;;24.80;99.90;;;;;;5090743;28;20044;-73
2021/07/03 11:17:26;;;;;;;13.25;11.75;;;24.80;99.90;;;;;;5089553;28;20062;-73
2021/07/03 11:19:54;;;;;;;13.25;11.30;;;24.90;99.90;;;;;;5090521;28;20020;-74
2021/07/03 11:22:23;;;;;;;11.90;10.80;;;24.80;99.90;;;;;;5091778;28;20036;-72
2021/07/03 11:24:50;;;;;;;14.02;11.35;;;24.80;99.90;;;;;;5090318;28;20173;-74
2021/07/03 11:27:34;;;;;;;13.88;10.43;;;24.70;99.90;;;;;;5086690;28;20103;-74
2021/07/03 11:30:05;;;;;;;12.40;10.27;;;24.80;99.90;;;;;;5089825;28;20024;-72
2021/07/03 11:32:31;;;;;;;10.20;9.30;;;24.70;99.90;;;;;;5089039;28;20163;-73
2021/07/03 11:34:57;;;;;;;12.68;10.93;;;24.80;99.90;;;;;;5087636;28;20111;-72
2021/07/03 11:37:37;;;;;;;11.90;10.68;;;24.90;99.90;;;;;;5090749;28;20458;-73
2021/07/03 11:40:08;;;;;;;10.80;9.73;;;25.00;99.90;;;;;;5090748;28;20352;-73
2021/07/03 11:42:36;;;;;;;10.88;9.80;;;25.00;99.90;;;;;;5086674;28;20067;-72
2021/07/03 11:45:24;;;;;;;13.82;10.73;;;25.00;99.90;;;;;;5045775;28;20504;-72
2021/07/03 11:47:53;;;;;;;10.82;9.75;;;25.00;99.90;;;;;;5087860;28;20044;-72
2021/07/03 11:50:21;;;;;;;10.93;9.85;;;25.00;99.90;;;;;;5090478;28;20032;-73
2021/07/03 11:52:49;;;;;;;12.02;10.73;;;24.90;99.90;;;;;;5090694;28;20059;-73
2021/07/03 11:55:18;;;;;;;12.65;10.52;;;25.00;99.90;;;;;;5072458;28;20477;-72
2021/07/03 11:57:46;;;;;;;10.70;9.70;;;25.00;99.90;;;;;;5087799;28;20020;-74
2021/07/03 12:00:14;;;;;;;15.38;9.27;;;25.10;99.90;;;;;;5088847;28;20024;-74
2021/07/03 12:02:41;;;;;;;12.98;10.75;;;25.20;99.90;;;;;;5089127;28;20060;-73
2021/07/03 12:05:07;;;;;;;12.00;10.30;;;25.20;99.90;;;;;;5089236;28;20391;-75
2021/07/03 12:07:35;;;;;;;12.98;9.95;;;25.30;99.90;;;;;;5090690;28;20028;-73
2021/07/03 12:10:07;;;;;;;11.00;9.88;;;25.30;99.90;;;;;;5089558;28;20021;-74
2021/07/03 12:12:33;;;;;;;12.07;9.55;;;25.30;99.90;;;;;;5091208;28;20042;-74
2021/07/03 12:15:16;;;;;;;11.90;10.85;;;25.30;99.90;;;;;;5085465;28;20029;-74
2021/07/03 12:17:47;;;;;;;11.70;10.50;;;25.30;99.90;;;;;;5090650;28;20539;-74
2021/07/03 12:20:13;;;;;;;14.95;10.95;;;25.40;99.90;;;;;;5089318;28;20044;-73
2021/07/03 12:22:39;;;;;;;11.48;10.35;;;25.40;99.90;;;;;;5087995;28;20078;-73
2021/07/03 12:25:15;;;;;;;13.82;10.18;;;25.40;99.90;;;;;;5088665;28;20102;-73
2021/07/03 12:27:49;;;;;;;11.25;10.02;;;25.30;99.90;;;;;;5087744;28;20017;-73